createdAt,value
2023-05-09T00:01:15.165Z,66.47
2023-05-09T00:03:44.688Z,66.17
2023-05-09T00:06:11.703Z,66.60
2023-05-09T00:08:38.392Z,67.18
2023-05-09T00:11:05.099Z,66.22
2023-05-09T00:13:31.675Z,66.73
2023-05-09T00:15:58.481Z,67.75
2023-05-09T00:18:25.072Z,67.42
2023-05-09T00:20:51.632Z,67.65
2023-05-09T00:23:18.191Z,67.27
2023-05-09T00:25:44.747Z,67.86
2023-05-09T00:28:11.632Z,67.59
2023-05-09T00:30:38.202Z,68.05
2023-05-09T00:33:04.772Z,68.45
2023-05-09T00:35:32.380Z,68.79
2023-05-09T00:37:59.494Z,68.84
2023-05-09T00:40:26.354Z,68.51
2023-05-09T00:42:52.995Z,69.42
2023-05-09T00:45:19.625Z,69.20
2023-05-09T00:47:46.203Z,68.94
2023-05-09T00:50:13.723Z,69.03
2023-05-09T00:52:40.328Z,69.06
2023-05-09T00:55:08.648Z,69.71
2023-05-09T00:57:36.124Z,69.62
2023-05-09T01:00:04.473Z,69.07
2023-05-09T01:02:32.332Z,69.24
2023-05-09T01:04:59.141Z,69.60
2023-05-09T01:07:35.430Z,69.83
2023-05-09T01:10:19.971Z,70.02
2023-05-09T01:12:54.216Z,70.95
2023-05-09T01:15:34.211Z,72.17
2023-05-09T01:18:25.844Z,71.27
2023-05-09T01:21:08.886Z,71.54
2023-05-09T01:23:44.648Z,71.44
2023-05-09T01:26:26.124Z,70.83
2023-05-09T01:29:35.471Z,71.44
2023-05-09T01:32:10.098Z,71.87
2023-05-09T01:34:40.355Z,71.60
2023-05-09T01:37:07.517Z,71.83
2023-05-09T01:39:34.972Z,72.36
2023-05-09T01:42:04.552Z,72.53
2023-05-09T01:44:38.970Z,72.75
2023-05-09T01:47:07.781Z,72.14
2023-05-09T01:49:36.373Z,72.00
2023-05-09T01:52:08.838Z,71.91
2023-05-09T01:54:37.186Z,72.34
2023-05-09T01:57:04.837Z,72.41
2023-05-09T01:59:33.337Z,72.67
2023-05-09T02:02:00.833Z,72.84
2023-05-09T02:04:29.113Z,72.93
2023-05-09T02:06:57.489Z,73.06
2023-05-09T02:09:24.182Z,73.00
2023-05-09T02:11:50.802Z,73.12
2023-05-09T02:14:17.746Z,73.49
2023-05-09T02:16:44.555Z,73.47
2023-05-09T02:19:11.258Z,73.93
2023-05-09T02:21:37.839Z,73.34
2023-05-09T02:24:04.730Z,74.36
2023-05-09T02:26:31.499Z,73.78
2023-05-09T02:28:59.042Z,73.96
2023-05-09T02:31:29.583Z,74.25
2023-05-09T02:33:57.388Z,73.61
2023-05-09T02:36:24.436Z,74.50
2023-05-09T02:38:51.488Z,74.06
2023-05-09T02:41:18.072Z,74.47
2023-05-09T02:43:45.077Z,74.64
2023-05-09T02:46:11.769Z,74.30
2023-05-09T02:48:38.357Z,74.61
2023-05-09T02:51:04.951Z,74.54
2023-05-09T02:53:31.460Z,75.16
2023-05-09T02:55:58.631Z,75.06
2023-05-09T02:58:25.421Z,75.58
2023-05-09T03:00:51.975Z,75.69
2023-05-09T03:03:19.194Z,75.83
2023-05-09T03:05:46.416Z,75.80
2023-05-09T03:08:12.982Z,76.96
2023-05-09T03:10:39.565Z,75.98
2023-05-09T03:13:06.188Z,75.87
2023-05-09T03:15:32.732Z,76.61
2023-05-09T03:17:59.298Z,76.30
2023-05-09T03:20:27.131Z,76.56
2023-05-09T03:22:53.726Z,76.34
2023-05-09T03:25:20.435Z,78.01
2023-05-09T03:27:46.960Z,78.00
2023-05-09T03:30:14.059Z,77.32
2023-05-09T03:32:40.594Z,77.24
2023-05-09T03:35:07.649Z,76.81
2023-05-09T03:37:34.184Z,76.83
2023-05-09T03:40:00.710Z,76.82
2023-05-09T03:42:27.288Z,76.75
2023-05-09T03:44:54.976Z,76.90
2023-05-09T03:47:21.543Z,77.11
2023-05-09T03:49:48.113Z,76.56
2023-05-09T03:52:14.663Z,76.94
2023-05-09T03:54:41.222Z,76.30
2023-05-09T03:57:07.754Z,76.52
2023-05-09T03:59:34.314Z,76.54
2023-05-09T04:02:01.096Z,76.79
2023-05-09T04:04:27.680Z,76.99
2023-05-09T04:06:54.391Z,76.50
2023-05-09T04:09:21.051Z,76.43
2023-05-09T04:11:47.614Z,76.14
2023-05-09T04:14:14.277Z,76.15
2023-05-09T04:16:40.867Z,75.75
2023-05-09T04:19:07.503Z,76.35
2023-05-09T04:21:34.090Z,76.00
2023-05-09T04:24:00.725Z,75.96
2023-05-09T04:26:27.333Z,75.31
2023-05-09T04:28:53.918Z,74.87
2023-05-09T04:31:21.198Z,74.67
2023-05-09T04:33:47.825Z,75.04
2023-05-09T04:36:14.367Z,74.09
2023-05-09T04:38:41.014Z,74.51
2023-05-09T04:41:07.538Z,73.48
2023-05-09T04:43:34.219Z,73.12
2023-05-09T04:46:00.800Z,73.32
2023-05-09T04:48:27.437Z,73.12
2023-05-09T04:50:53.942Z,72.30
2023-05-09T04:53:20.517Z,71.51
2023-05-09T04:55:47.143Z,71.46
2023-05-09T04:58:13.743Z,70.70
2023-05-09T05:00:40.270Z,69.97
2023-05-09T05:03:07.203Z,69.93
2023-05-09T05:05:36.752Z,69.46
2023-05-09T05:08:04.094Z,69.37
2023-05-09T05:10:30.751Z,69.45
2023-05-09T05:12:57.470Z,69.57
2023-05-09T05:15:23.983Z,69.91
2023-05-09T05:17:50.579Z,69.52
2023-05-09T05:20:17.169Z,69.67
2023-05-09T05:22:43.882Z,70.47
2023-05-09T05:25:10.807Z,70.16
2023-05-09T05:27:37.386Z,69.27
2023-05-09T05:30:04.463Z,69.08
2023-05-09T05:32:31.069Z,69.68
2023-05-09T05:34:57.638Z,69.02
2023-05-09T05:37:24.237Z,68.56
2023-05-09T05:39:51.617Z,67.91
2023-05-09T05:42:18.423Z,67.44
2023-05-09T05:44:44.928Z,66.71
2023-05-09T05:47:11.444Z,66.07
2023-05-09T05:49:38.500Z,65.42
2023-05-09T05:52:05.069Z,65.21
2023-05-09T05:54:31.793Z,64.94
2023-05-09T05:56:58.312Z,64.13
2023-05-09T05:59:24.816Z,64.07
2023-05-09T06:01:51.535Z,63.90
2023-05-09T06:04:18.142Z,63.63
2023-05-09T06:06:46.125Z,64.10
2023-05-09T06:09:12.729Z,62.80
2023-05-09T06:11:39.318Z,63.61
2023-05-09T06:14:05.886Z,62.40
2023-05-09T06:16:32.874Z,61.88
2023-05-09T06:18:59.437Z,61.23
2023-05-09T06:21:26.348Z,61.54
2023-05-09T06:26:22.410Z,61.50
2023-05-09T06:28:48.954Z,60.79
2023-05-09T06:31:15.540Z,60.21
2023-05-09T06:33:42.188Z,59.67
2023-05-09T06:36:08.904Z,59.00
2023-05-09T06:38:35.495Z,59.54
2023-05-09T06:41:02.035Z,58.11
2023-05-09T06:43:28.569Z,57.32
2023-05-09T06:45:55.126Z,57.16
2023-05-09T06:48:23.873Z,57.12
2023-05-09T06:50:50.629Z,56.66
2023-05-09T06:53:17.183Z,55.83
2023-05-09T06:55:44.092Z,55.13
2023-05-09T06:58:11.294Z,55.20
2023-05-09T07:00:38.068Z,55.42
2023-05-09T07:03:07.229Z,53.84
2023-05-09T07:05:34.483Z,53.78
2023-05-09T07:08:01.209Z,53.56
2023-05-09T07:10:28.125Z,53.24
2023-05-09T07:12:54.697Z,53.09
2023-05-09T07:15:36.702Z,53.05
2023-05-09T07:18:06.861Z,52.66
2023-05-09T07:20:33.408Z,52.27
2023-05-09T07:22:59.987Z,51.88
2023-05-09T07:25:26.600Z,51.26
2023-05-09T07:27:53.218Z,51.08
2023-05-09T07:30:19.798Z,50.65
2023-05-09T07:32:46.688Z,50.25
2023-05-09T07:35:13.509Z,49.97
2023-05-09T07:37:40.730Z,50.29
2023-05-09T07:40:08.044Z,50.00
2023-05-09T07:42:34.732Z,49.36
2023-05-09T07:45:01.372Z,49.33
2023-05-09T07:47:27.899Z,49.36
2023-05-09T07:49:54.469Z,49.21
2023-05-09T07:52:21.124Z,48.66
2023-05-09T07:54:47.691Z,48.97
2023-05-09T07:57:14.339Z,48.87
2023-05-09T07:59:41.141Z,48.79
2023-05-09T08:02:07.737Z,48.25
2023-05-09T08:04:37.742Z,47.93
2023-05-09T08:07:04.938Z,47.66
2023-05-09T08:09:31.509Z,48.08
2023-05-09T08:12:05.203Z,47.51
2023-05-09T08:14:31.826Z,47.67
2023-05-09T08:16:58.368Z,48.15
2023-05-09T08:19:26.350Z,47.79
2023-05-09T08:21:53.385Z,47.59
2023-05-09T08:24:20.365Z,46.98
2023-05-09T08:26:47.092Z,46.49
2023-05-09T08:29:13.628Z,46.64
2023-05-09T08:31:40.848Z,45.73
2023-05-09T08:34:07.426Z,46.63
2023-05-09T08:36:34.050Z,46.30
2023-05-09T08:39:00.626Z,46.33
2023-05-09T08:41:28.136Z,45.56
2023-05-09T08:43:55.667Z,45.17
2023-05-09T08:46:30.985Z,45.90
2023-05-09T08:48:58.642Z,45.80
2023-05-09T08:51:25.638Z,45.34
2023-05-09T08:53:52.387Z,44.96
2023-05-09T08:56:19.159Z,44.98
2023-05-09T08:58:45.826Z,44.56
2023-05-09T09:01:14.434Z,44.25
2023-05-09T09:03:47.550Z,43.98
2023-05-09T09:06:14.452Z,43.95
2023-05-09T09:08:41.763Z,43.95
2023-05-09T09:11:12.514Z,43.78
2023-05-09T09:13:41.807Z,43.53
2023-05-09T09:16:17.799Z,43.41
2023-05-09T09:18:44.882Z,43.05
2023-05-09T09:21:12.897Z,43.05
2023-05-09T09:23:43.075Z,42.89
2023-05-09T09:26:09.925Z,42.63
2023-05-09T09:28:36.519Z,42.64
2023-05-09T09:31:19.664Z,42.79
2023-05-09T09:33:46.404Z,42.64
2023-05-09T09:36:13.246Z,42.48
2023-05-09T09:38:42.709Z,42.68
2023-05-09T09:41:11.367Z,42.62
2023-05-09T09:43:38.111Z,42.26
2023-05-09T09:46:06.475Z,42.29
2023-05-09T09:48:36.213Z,41.71
2023-05-09T09:51:11.248Z,42.11
2023-05-09T09:53:41.846Z,41.83
2023-05-09T09:56:09.242Z,41.85
2023-05-09T09:58:36.217Z,41.92
2023-05-09T10:01:11.242Z,41.67
2023-05-09T10:03:43.295Z,41.83
2023-05-09T10:06:12.007Z,41.88
2023-05-09T10:08:39.660Z,42.51
2023-05-09T10:11:06.366Z,42.62
2023-05-09T10:13:36.395Z,42.85
2023-05-09T10:16:04.425Z,42.95
2023-05-09T10:18:32.073Z,43.13
2023-05-09T10:21:04.173Z,43.09
2023-05-09T10:23:32.929Z,42.51
2023-05-09T10:26:19.077Z,42.03
2023-05-09T10:28:47.999Z,42.00
2023-05-09T10:31:28.253Z,42.52
2023-05-09T10:33:58.795Z,42.92
2023-05-09T10:36:25.535Z,42.85
2023-05-09T10:38:56.200Z,43.24
2023-05-09T10:41:23.663Z,43.97
2023-05-09T10:43:50.468Z,43.46
2023-05-09T10:46:17.821Z,43.56
2023-05-09T10:48:45.541Z,42.94
2023-05-09T10:51:13.181Z,42.62
2023-05-09T10:53:49.846Z,42.24
2023-05-09T10:56:26.905Z,42.03
2023-05-09T10:58:54.633Z,41.74
2023-05-09T11:01:34.939Z,41.66
2023-05-09T11:04:12.727Z,41.74
2023-05-09T11:06:46.144Z,42.52
2023-05-09T11:09:35.798Z,43.08
2023-05-09T11:12:05.510Z,42.33
2023-05-09T11:14:46.833Z,42.37
2023-05-09T11:17:27.181Z,42.45
2023-05-09T11:19:53.722Z,42.06
2023-05-09T11:22:22.707Z,42.00
2023-05-09T11:24:51.181Z,41.82
2023-05-09T11:27:22.256Z,40.84
2023-05-09T11:29:57.998Z,40.74
2023-05-09T11:32:31.104Z,40.86
2023-05-09T11:35:30.508Z,40.62
2023-05-09T11:38:00.346Z,40.22
2023-05-09T11:40:28.666Z,40.30
2023-05-09T11:42:58.562Z,40.64
2023-05-09T11:45:30.842Z,40.63
2023-05-09T11:47:57.689Z,40.87
2023-05-09T11:50:24.890Z,40.73
2023-05-09T11:52:52.041Z,40.50
2023-05-09T11:55:25.175Z,40.07
2023-05-09T11:57:53.625Z,39.87
2023-05-09T12:00:22.992Z,39.55
2023-05-09T12:02:51.159Z,38.92
2023-05-09T12:26:55.015Z,39.16
2023-05-09T12:57:31.685Z,37.92
2023-05-09T13:05:42.986Z,38.03
2023-05-09T13:08:10.731Z,37.82
2023-05-09T13:18:36.512Z,37.15
2023-05-09T13:21:03.487Z,36.94
2023-05-09T15:51:30.139Z,35.33
2023-05-09T15:53:56.810Z,35.45
2023-05-09T15:56:23.381Z,35.64
2023-05-09T15:58:49.988Z,35.28
2023-05-09T16:01:16.704Z,35.43
2023-05-09T16:03:43.469Z,34.97
2023-05-09T16:06:10.542Z,35.11
2023-05-09T16:08:37.651Z,34.92
2023-05-09T16:11:05.141Z,34.55
2023-05-09T16:13:33.008Z,34.22
2023-05-09T16:16:02.398Z,34.64
2023-05-09T16:18:29.068Z,34.46
2023-05-09T16:20:55.685Z,34.55
2023-05-09T16:23:23.523Z,34.67
2023-05-09T16:25:50.084Z,35.07
2023-05-09T16:28:16.804Z,35.07
2023-05-09T16:30:43.359Z,35.25
2023-05-09T16:33:09.911Z,35.13
2023-05-09T16:35:36.500Z,35.25
2023-05-09T16:38:03.029Z,35.41
2023-05-09T16:40:29.584Z,35.79
2023-05-09T16:42:56.684Z,36.54
2023-05-09T16:45:23.270Z,36.94
2023-05-09T16:47:51.125Z,37.61
2023-05-09T16:50:17.876Z,37.71
2023-05-09T16:52:44.638Z,38.09
2023-05-09T16:55:11.187Z,38.40
2023-05-09T16:57:37.779Z,39.05
2023-05-09T17:00:07.816Z,39.53
2023-05-09T17:02:36.290Z,39.21
2023-05-09T17:05:04.306Z,39.11
2023-05-09T17:07:31.686Z,39.54
2023-05-09T17:09:58.317Z,39.89
2023-05-09T17:12:25.238Z,39.76
2023-05-09T17:14:52.156Z,39.22
2023-05-09T17:17:18.881Z,39.01
2023-05-09T17:19:45.622Z,38.55
2023-05-09T17:22:12.233Z,39.82
2023-05-09T17:24:38.842Z,40.84
2023-05-09T17:27:05.633Z,40.88
2023-05-09T17:29:32.325Z,42.07
2023-05-09T17:32:02.142Z,42.15
2023-05-09T17:34:29.101Z,42.56
2023-05-09T17:36:56.279Z,42.67
2023-05-09T17:39:23.283Z,42.53
2023-05-09T17:41:49.823Z,43.14
2023-05-09T17:44:16.715Z,42.91
2023-05-09T17:46:44.125Z,43.02
2023-05-09T17:49:13.937Z,43.00
2023-05-09T17:51:40.824Z,43.17
2023-05-09T17:54:07.479Z,43.26
2023-05-09T17:56:34.145Z,43.37
2023-05-09T17:59:00.706Z,43.65
2023-05-09T18:01:27.340Z,44.07
2023-05-09T18:03:54.106Z,44.28
2023-05-09T18:06:20.936Z,44.61
2023-05-09T18:08:47.532Z,45.04
2023-05-09T18:11:15.153Z,45.19
2023-05-09T18:13:41.721Z,45.99
2023-05-09T18:16:08.433Z,46.20
2023-05-09T18:18:36.537Z,46.30
2023-05-09T18:21:04.930Z,46.22
2023-05-09T18:23:31.522Z,46.97
2023-05-09T18:25:58.360Z,47.20
2023-05-09T18:28:25.872Z,47.72
2023-05-09T18:31:00.454Z,48.06
2023-05-09T18:33:28.630Z,47.71
2023-05-09T18:35:55.434Z,48.86
2023-05-09T18:38:22.829Z,48.81
2023-05-09T18:40:51.719Z,48.25
2023-05-09T18:43:20.592Z,49.27
2023-05-09T18:45:48.104Z,49.26
2023-05-09T18:48:17.838Z,49.29
2023-05-09T18:50:44.811Z,49.24
2023-05-09T18:53:11.710Z,49.97
2023-05-09T18:55:38.799Z,49.78
2023-05-09T18:58:06.451Z,50.01
2023-05-09T19:00:35.721Z,49.92
2023-05-09T19:03:02.436Z,50.17
2023-05-09T19:05:29.193Z,50.80
2023-05-09T19:07:55.718Z,50.87
2023-05-09T19:10:22.580Z,50.42
2023-05-09T19:12:49.496Z,51.26
2023-05-09T19:15:16.176Z,51.43
2023-05-09T19:17:42.755Z,51.46
2023-05-09T19:20:10.292Z,51.77
2023-05-09T19:22:36.865Z,51.81
2023-05-09T19:25:03.773Z,51.57
2023-05-09T19:27:30.304Z,51.80
2023-05-09T19:29:56.879Z,52.57
2023-05-09T19:32:23.524Z,52.14
2023-05-09T19:34:50.152Z,53.23
2023-05-09T19:37:16.671Z,52.33
2023-05-09T19:39:43.224Z,53.35
2023-05-09T19:42:09.788Z,52.84
2023-05-09T19:44:36.376Z,53.17
2023-05-09T19:47:05.213Z,53.09
2023-05-09T19:49:32.720Z,53.78
2023-05-09T19:51:59.306Z,54.34
2023-05-09T19:54:27.027Z,54.46
2023-05-09T19:56:53.551Z,54.85
2023-05-09T19:59:20.080Z,54.32
2023-05-09T20:01:46.613Z,55.07
2023-05-09T20:04:13.238Z,55.27
2023-05-09T20:06:40.117Z,54.99
2023-05-09T20:09:06.643Z,56.14
2023-05-09T20:11:33.137Z,55.82
2023-05-09T20:13:59.720Z,56.02
2023-05-09T20:16:26.600Z,55.55
2023-05-09T20:18:55.065Z,56.58
2023-05-09T20:21:21.757Z,55.95
2023-05-09T20:23:48.314Z,56.44
2023-05-09T20:26:14.852Z,55.94
2023-05-09T20:28:41.483Z,56.71
2023-05-09T20:31:08.039Z,56.68
2023-05-09T20:33:34.971Z,56.23
2023-05-09T20:36:01.714Z,56.11
2023-05-09T20:38:28.257Z,56.39
2023-05-09T20:40:54.815Z,55.85
2023-05-09T20:43:21.350Z,55.98
2023-05-09T20:45:48.177Z,55.81
2023-05-09T20:48:14.780Z,56.27
2023-05-09T20:50:41.327Z,56.46
2023-05-09T20:53:07.831Z,56.72
2023-05-09T20:55:34.868Z,56.20
2023-05-09T20:58:01.403Z,56.66
2023-05-09T21:00:28.121Z,56.67
2023-05-09T21:02:58.565Z,57.02
2023-05-09T21:05:25.533Z,56.90
2023-05-09T21:07:52.061Z,56.91
2023-05-09T21:10:18.791Z,56.64
2023-05-09T21:12:45.382Z,56.93
2023-05-09T21:15:11.984Z,57.03
2023-05-09T21:17:38.678Z,56.44
2023-05-09T21:20:06.290Z,57.51
2023-05-09T21:22:32.811Z,57.15
2023-05-09T21:24:59.396Z,57.67
2023-05-09T21:27:27.034Z,57.65
2023-05-09T21:29:53.564Z,58.03
2023-05-09T21:32:20.086Z,57.88
2023-05-09T21:34:47.719Z,57.69
2023-05-09T21:37:14.314Z,58.60
2023-05-09T21:39:41.069Z,57.90
2023-05-09T21:42:08.825Z,58.08
2023-05-09T21:44:35.693Z,57.99
2023-05-09T21:47:02.339Z,58.22
2023-05-09T21:49:29.382Z,58.67
2023-05-09T21:51:56.006Z,58.27
2023-05-09T21:54:22.575Z,58.09
2023-05-09T21:56:49.128Z,58.06
2023-05-09T21:59:17.673Z,58.25
2023-05-09T22:01:45.893Z,58.86
2023-05-09T22:04:12.589Z,58.63
2023-05-09T22:06:39.384Z,58.94
2023-05-09T22:09:06.620Z,59.19
2023-05-09T22:11:33.675Z,60.18
2023-05-09T22:14:00.225Z,59.95
2023-05-09T22:16:27.193Z,60.12
2023-05-09T22:18:53.850Z,60.46
2023-05-09T22:21:20.379Z,61.44
2023-05-09T22:23:46.902Z,61.07
2023-05-09T22:26:13.489Z,60.74
2023-05-09T22:28:40.036Z,60.76
2023-05-09T22:31:06.989Z,61.32
2023-05-09T22:33:34.378Z,60.82
2023-05-09T22:36:01.179Z,60.68
2023-05-09T22:38:27.714Z,61.15
2023-05-09T22:40:54.241Z,61.03
2023-05-09T22:43:20.786Z,61.28
2023-05-09T22:45:47.388Z,61.22
2023-05-09T22:48:14.026Z,60.94
2023-05-09T22:50:40.583Z,61.74
2023-05-09T22:53:07.313Z,61.16
2023-05-09T22:55:34.360Z,61.67
2023-05-09T22:58:00.888Z,62.18
2023-05-09T23:00:28.862Z,62.20
2023-05-09T23:02:55.518Z,61.67
2023-05-09T23:05:22.297Z,62.22
2023-05-09T23:07:48.965Z,62.25
2023-05-09T23:10:15.852Z,61.40
2023-05-09T23:12:42.696Z,61.92
2023-05-09T23:15:09.659Z,61.76
2023-05-09T23:17:36.412Z,62.48
2023-05-09T23:20:03.989Z,63.09
2023-05-09T23:22:30.931Z,62.27
2023-05-09T23:24:57.601Z,62.63
2023-05-09T23:27:24.109Z,62.43
2023-05-09T23:29:50.711Z,63.64
2023-05-09T23:32:17.300Z,62.22
2023-05-09T23:34:43.844Z,64.39
2023-05-09T23:37:10.540Z,64.16
2023-05-09T23:39:37.121Z,64.01
2023-05-09T23:42:04.172Z,63.71
2023-05-09T23:44:31.093Z,63.35
2023-05-09T23:46:57.784Z,64.66
2023-05-09T23:49:24.389Z,64.26
2023-05-09T23:51:51.687Z,63.77
2023-05-09T23:54:18.288Z,65.44
2023-05-09T23:56:44.806Z,66.02
2023-05-09T23:59:11.296Z,65.85
